createdAt,value
2018-11-25T00:02:31.874Z,86.43
2018-11-25T00:05:13.296Z,109.33
2018-11-25T00:07:55.017Z,101.30
2018-11-25T00:10:37.332Z,96.30
2018-11-25T00:13:20.044Z,108.57
2018-11-25T00:16:03.012Z,102.77
2018-11-25T00:18:45.164Z,114.40
2018-11-25T00:21:27.161Z,99.03
2018-11-25T00:24:09.478Z,101.43
2018-11-25T00:26:50.846Z,105.43
2018-11-25T00:29:33.260Z,104.17
2018-11-25T00:32:15.702Z,102.80
2018-11-25T00:34:57.942Z,84.77
2018-11-25T00:37:43.346Z,91.37
2018-11-25T00:40:22.245Z,117.40
2018-11-25T00:43:04.773Z,95.13
2018-11-25T00:45:46.667Z,91.77
2018-11-25T00:48:29.048Z,104.40
2018-11-25T00:51:11.556Z,95.57
2018-11-25T00:53:53.231Z,98.03
2018-11-25T00:56:34.968Z,93.70
2018-11-25T00:59:17.273Z,106.17
2018-11-25T01:01:59.994Z,120.43
2018-11-25T01:04:41.848Z,93.10
2018-11-25T01:07:24.377Z,103.07
2018-11-25T01:10:09.451Z,142.90
2018-11-25T01:12:51.526Z,110.47
2018-11-25T01:15:34.063Z,138.50
2018-11-25T01:18:16.572Z,115.87
2018-11-25T01:20:58.466Z,175.80
2018-11-25T01:23:40.158Z,115.83
2018-11-25T01:26:21.845Z,184.77
2018-11-25T01:29:04.686Z,110.10
2018-11-25T01:31:46.755Z,133.47
2018-11-25T01:34:28.998Z,119.63
2018-11-25T01:37:11.705Z,120.07
2018-11-25T01:39:53.863Z,110.33
2018-11-25T01:42:35.791Z,113.00
2018-11-25T01:45:18.722Z,95.87
2018-11-25T01:48:00.998Z,91.97
2018-11-25T01:50:43.830Z,94.03
2018-11-25T01:53:25.710Z,98.80
2018-11-25T01:56:07.716Z,107.50
2018-11-25T01:58:49.282Z,122.20
2018-11-25T02:01:31.325Z,104.70
2018-11-25T02:04:13.388Z,111.37
2018-11-25T02:06:55.230Z,131.37
2018-11-25T02:09:37.393Z,108.63
2018-11-25T02:12:19.287Z,95.73
2018-11-25T02:15:01.901Z,118.00
2018-11-25T02:17:43.993Z,106.20
2018-11-25T02:20:25.936Z,107.50
2018-11-25T02:23:07.521Z,166.43
2018-11-25T02:25:49.166Z,109.83
2018-11-25T02:28:31.478Z,121.93
2018-11-25T02:31:13.273Z,135.00
2018-11-25T02:33:55.614Z,107.80
2018-11-25T02:36:37.243Z,134.30
2018-11-25T02:39:20.330Z,111.70
2018-11-25T02:42:02.388Z,97.83
2018-11-25T02:44:44.825Z,91.33
2018-11-25T02:47:27.111Z,82.43
2018-11-25T02:50:27.153Z,92.77
2018-11-25T02:53:09.660Z,89.73
2018-11-25T02:55:52.554Z,72.93
2018-11-25T02:58:35.290Z,64.40
2018-11-25T03:01:17.485Z,80.43
2018-11-25T03:03:59.470Z,63.37
2018-11-25T03:06:42.078Z,67.57
2018-11-25T03:09:24.616Z,66.57
2018-11-25T03:12:07.032Z,67.17
2018-11-25T03:14:49.378Z,58.80
2018-11-25T03:17:30.799Z,61.97
2018-11-25T03:20:13.342Z,59.83
2018-11-25T03:22:56.026Z,61.40
2018-11-25T03:25:38.323Z,53.37
2018-11-25T03:28:20.785Z,58.30
2018-11-25T03:31:03.566Z,62.70
2018-11-25T03:33:45.949Z,58.70
2018-11-25T03:36:27.518Z,54.47
2018-11-25T03:39:09.890Z,66.23
2018-11-25T03:41:51.650Z,52.40
2018-11-25T03:44:33.970Z,57.80
2018-11-25T03:47:15.910Z,58.97
2018-11-25T03:49:58.392Z,57.47
2018-11-25T03:52:40.427Z,54.50
2018-11-25T03:55:23.250Z,57.33
2018-11-25T03:58:05.356Z,71.03
2018-11-25T04:00:47.807Z,53.70
2018-11-25T04:03:30.163Z,64.93
2018-11-25T04:06:11.795Z,67.47
2018-11-25T04:08:53.460Z,55.80
2018-11-25T04:11:35.179Z,75.73
2018-11-25T04:14:17.055Z,65.10
2018-11-25T04:16:59.870Z,68.37
2018-11-25T04:19:41.663Z,58.97
2018-11-25T04:22:23.860Z,57.90
2018-11-25T04:25:06.763Z,60.47
2018-11-25T04:27:48.355Z,61.37
2018-11-25T04:30:30.065Z,60.13
2018-11-25T04:33:12.233Z,51.77
2018-11-25T04:35:54.046Z,43.10
2018-11-25T04:38:35.756Z,45.73
2018-11-25T04:41:18.073Z,51.40
2018-11-25T04:44:00.182Z,41.47
2018-11-25T04:46:42.663Z,55.83
2018-11-25T04:49:26.198Z,61.73
2018-11-25T04:52:08.283Z,57.70
2018-11-25T04:54:49.985Z,65.57
2018-11-25T04:57:31.862Z,75.27
2018-11-25T05:00:14.189Z,76.60
2018-11-25T05:02:57.039Z,79.10
2018-11-25T05:05:38.762Z,75.77
2018-11-25T05:08:20.889Z,93.97
2018-11-25T05:11:03.102Z,85.83
2018-11-25T05:13:44.585Z,103.73
2018-11-25T05:16:26.698Z,91.97
2018-11-25T05:19:08.811Z,82.87
2018-11-25T05:21:51.704Z,93.77
2018-11-25T05:24:33.822Z,108.20
2018-11-25T05:27:15.425Z,99.47
2018-11-25T05:29:56.966Z,106.93
2018-11-25T05:32:38.788Z,111.73
2018-11-25T05:35:20.842Z,117.70
2018-11-25T05:38:02.818Z,116.37
2018-11-25T05:40:44.336Z,108.87
2018-11-25T05:43:26.332Z,121.53
2018-11-25T05:46:08.479Z,118.57
2018-11-25T05:48:50.506Z,121.30
2018-11-25T05:51:32.274Z,119.43
2018-11-25T05:54:14.432Z,107.57
2018-11-25T05:56:56.656Z,123.10
2018-11-25T05:59:38.850Z,104.37
2018-11-25T06:02:21.336Z,125.90
2018-11-25T06:05:02.822Z,105.23
2018-11-25T06:07:44.652Z,94.07
2018-11-25T06:10:26.552Z,114.33
2018-11-25T06:13:08.948Z,111.73
2018-11-25T06:15:51.045Z,122.17
2018-11-25T06:18:32.718Z,112.30
2018-11-25T06:21:14.666Z,110.80
2018-11-25T06:23:57.458Z,88.60
2018-11-25T06:26:39.840Z,132.13
2018-11-25T06:29:22.062Z,113.33
2018-11-25T06:32:03.421Z,119.10
2018-11-25T06:34:53.720Z,127.50
2018-11-25T06:37:35.631Z,182.27
2018-11-25T06:40:20.813Z,143.47
2018-11-25T06:43:03.307Z,135.50
2018-11-25T06:45:46.170Z,172.90
2018-11-25T06:48:28.774Z,156.00
2018-11-25T06:51:10.357Z,132.90
2018-11-25T06:53:52.248Z,165.07
2018-11-25T06:56:34.431Z,151.00
2018-11-25T06:59:16.021Z,153.80
2018-11-25T07:01:57.690Z,171.13
2018-11-25T07:04:39.806Z,138.50
2018-11-25T07:07:22.105Z,121.40
2018-11-25T07:10:05.115Z,123.50
2018-11-25T07:12:47.006Z,113.60
2018-11-25T07:15:29.957Z,110.03
2018-11-25T07:18:11.751Z,117.90
2018-11-25T07:20:53.658Z,126.03
2018-11-25T07:23:36.141Z,120.10
2018-11-25T07:26:17.325Z,143.90
2018-11-25T07:28:59.558Z,137.57
2018-11-25T07:31:42.475Z,145.53
2018-11-25T07:34:25.059Z,134.50
2018-11-25T07:37:07.549Z,125.93
2018-11-25T07:39:49.909Z,150.97
2018-11-25T07:42:31.450Z,123.73
2018-11-25T07:45:15.970Z,151.93
2018-11-25T07:48:10.014Z,136.47
2018-11-25T07:51:08.535Z,154.93
2018-11-25T07:53:50.713Z,118.50
2018-11-25T07:56:33.516Z,120.17
2018-11-25T07:59:15.710Z,153.87
2018-11-25T08:01:57.732Z,139.07
2018-11-25T08:04:40.663Z,146.53
2018-11-25T08:07:23.364Z,132.77
2018-11-25T08:10:08.026Z,134.20
2018-11-25T08:12:50.105Z,140.13
2018-11-25T08:15:31.900Z,118.20
2018-11-25T08:18:13.892Z,115.57
2018-11-25T08:20:56.048Z,113.00
2018-11-25T08:23:37.658Z,201.17
2018-11-25T08:26:19.806Z,191.77
2018-11-25T08:29:01.874Z,163.00
2018-11-25T08:31:44.091Z,140.87
2018-11-25T08:34:26.833Z,173.97
2018-11-25T08:37:09.235Z,236.53
2018-11-25T08:39:51.232Z,222.87
2018-11-25T08:42:33.231Z,296.37
2018-11-25T08:45:15.483Z,168.33
2018-11-25T08:47:57.616Z,232.77
2018-11-25T08:50:39.711Z,164.57
2018-11-25T08:53:21.863Z,218.67
2018-11-25T08:56:04.225Z,186.23
2018-11-25T08:58:47.122Z,245.40
2018-11-25T09:01:30.147Z,147.07
2018-11-25T09:04:12.666Z,116.77
2018-11-25T09:06:54.854Z,110.20
2018-11-25T09:09:36.382Z,128.17
2018-11-25T09:12:18.059Z,93.23
2018-11-25T09:15:00.360Z,107.77
2018-11-25T09:17:42.374Z,78.10
2018-11-25T09:20:23.956Z,85.73
2018-11-25T09:23:05.664Z,87.63
2018-11-25T09:25:48.171Z,104.53
2018-11-25T09:28:30.559Z,87.70
2018-11-25T09:31:14.311Z,52.33
2018-11-25T09:33:56.874Z,53.93
2018-11-25T09:36:39.303Z,63.07
2018-11-25T09:39:21.206Z,73.80
2018-11-25T09:42:03.532Z,76.97
2018-11-25T09:44:45.511Z,75.30
2018-11-25T09:47:27.614Z,98.70
2018-11-25T09:50:12.990Z,96.20
2018-11-25T09:52:55.829Z,97.10
2018-11-25T09:55:37.402Z,108.90
2018-11-25T09:58:25.340Z,123.50
2018-11-25T10:01:02.329Z,95.43
2018-11-25T10:03:44.718Z,103.47
2018-11-25T10:06:27.026Z,113.97
2018-11-25T10:09:09.334Z,85.37
2018-11-25T10:11:51.631Z,83.27
2018-11-25T10:14:34.352Z,77.10
2018-11-25T10:17:16.750Z,82.23
2018-11-25T10:19:59.244Z,91.63
2018-11-25T10:22:41.568Z,108.70
2018-11-25T10:25:22.934Z,82.13
2018-11-25T10:28:05.378Z,87.53
2018-11-25T10:30:48.010Z,71.13
2018-11-25T10:33:30.126Z,78.93
2018-11-25T10:36:13.219Z,56.43
2018-11-25T10:38:55.400Z,51.93
2018-11-25T10:41:37.428Z,51.53
2018-11-25T10:44:18.888Z,59.97
2018-11-25T10:47:00.863Z,57.80
2018-11-25T10:49:42.898Z,57.70
2018-11-25T10:52:25.618Z,51.37
2018-11-25T10:55:08.887Z,66.53
2018-11-25T10:57:51.833Z,53.67
2018-11-25T11:00:41.839Z,47.23
2018-11-25T11:03:29.715Z,45.50
2018-11-25T11:06:17.370Z,57.93
2018-11-25T11:08:59.487Z,52.13
2018-11-25T11:11:41.663Z,62.80
2018-11-25T11:14:23.387Z,59.47
2018-11-25T11:17:04.666Z,61.00
2018-11-25T11:19:45.980Z,67.43
2018-11-25T11:22:27.766Z,79.97
2018-11-25T11:25:09.578Z,73.70
2018-11-25T11:27:51.089Z,70.40
2018-11-25T11:30:32.718Z,77.20
2018-11-25T11:33:14.302Z,75.50
2018-11-25T11:35:57.001Z,88.00
2018-11-25T11:38:39.603Z,69.03
2018-11-25T11:41:22.235Z,76.57
2018-11-25T11:44:04.470Z,76.33
2018-11-25T11:46:48.459Z,79.40
2018-11-25T11:49:30.901Z,81.27
2018-11-25T11:52:13.546Z,124.83
2018-11-25T11:54:56.555Z,119.33
2018-11-25T11:57:39.842Z,103.50
2018-11-25T12:00:29.650Z,86.20
2018-11-25T12:03:13.314Z,135.13
2018-11-25T12:05:55.393Z,97.77
2018-11-25T12:08:38.904Z,131.67
2018-11-25T12:11:21.890Z,117.90
2018-11-25T12:14:04.104Z,102.33
2018-11-25T12:16:47.181Z,156.23
2018-11-25T12:19:29.188Z,196.07
2018-11-25T12:22:11.537Z,120.97
2018-11-25T12:24:53.264Z,116.10
2018-11-25T12:27:35.759Z,100.37
2018-11-25T12:30:20.509Z,142.40
2018-11-25T12:33:02.864Z,130.60
2018-11-25T12:35:44.644Z,108.93
2018-11-25T12:38:27.107Z,118.50
2018-11-25T12:41:08.771Z,100.73
2018-11-25T12:43:51.425Z,86.13
2018-11-25T12:46:33.688Z,113.53
2018-11-25T12:49:15.327Z,90.53
2018-11-25T12:51:57.734Z,121.77
2018-11-25T12:54:39.221Z,97.77
2018-11-25T12:57:20.524Z,105.97
2018-11-25T13:00:02.184Z,103.93
2018-11-25T13:02:44.401Z,101.50
2018-11-25T13:05:26.721Z,146.57
2018-11-25T13:08:09.105Z,179.40
2018-11-25T13:10:51.094Z,149.23
2018-11-25T13:13:33.695Z,104.53
2018-11-25T13:16:16.299Z,132.13
2018-11-25T13:18:58.651Z,101.90
2018-11-25T13:21:41.026Z,159.60
2018-11-25T13:24:23.847Z,116.07
2018-11-25T13:27:05.762Z,166.50
2018-11-25T13:29:48.782Z,147.50
2018-11-25T13:32:30.657Z,149.13
2018-11-25T13:35:13.289Z,166.57
2018-11-25T13:41:39.500Z,116.77
2018-11-25T13:44:21.991Z,95.47
2018-11-25T13:47:06.151Z,117.87
2018-11-25T13:49:48.442Z,108.67
2018-11-25T13:52:30.495Z,104.43
2018-11-25T13:55:18.915Z,99.20
2018-11-25T13:58:01.403Z,98.83
2018-11-25T14:00:46.860Z,80.23
2018-11-25T14:03:33.846Z,84.90
2018-11-25T14:06:16.391Z,69.53
2018-11-25T14:08:58.545Z,58.77
2018-11-25T14:11:40.076Z,79.37
2018-11-25T14:14:22.562Z,86.13
2018-11-25T14:17:05.123Z,91.00
2018-11-25T14:19:47.705Z,71.33
2018-11-25T14:22:29.867Z,85.27
2018-11-25T14:25:13.647Z,77.17
2018-11-25T14:27:59.637Z,78.90
2018-11-25T14:30:43.151Z,81.63
2018-11-25T14:33:25.359Z,80.33
2018-11-25T14:36:08.123Z,71.40
2018-11-25T14:38:50.373Z,79.43
2018-11-25T14:41:32.599Z,69.47
2018-11-25T14:44:14.364Z,65.47
2018-11-25T14:46:56.574Z,81.53
2018-11-25T14:49:38.789Z,73.57
2018-11-25T14:52:21.349Z,84.00
2018-11-25T14:55:03.269Z,79.87
2018-11-25T14:57:44.658Z,86.97
2018-11-25T15:00:26.965Z,89.17
2018-11-25T15:03:09.073Z,87.07
2018-11-25T15:05:50.809Z,98.30
2018-11-25T15:08:32.988Z,81.47
2018-11-25T15:11:16.002Z,91.10
2018-11-25T15:13:57.979Z,92.57
2018-11-25T15:16:41.418Z,111.73
2018-11-25T15:19:22.699Z,129.40
2018-11-25T15:22:06.065Z,103.60
2018-11-25T15:24:48.715Z,137.57
2018-11-25T15:27:30.760Z,196.37
2018-11-25T15:30:12.970Z,192.60
2018-11-25T15:32:55.353Z,154.43
2018-11-25T15:35:36.851Z,157.87
2018-11-25T15:38:19.880Z,193.60
2018-11-25T15:41:02.368Z,165.47
2018-11-25T15:43:44.565Z,173.07
2018-11-25T15:46:26.285Z,141.13
2018-11-25T15:49:08.700Z,178.73
2018-11-25T15:51:51.175Z,174.27
2018-11-25T15:54:33.771Z,153.07
2018-11-25T15:57:16.794Z,171.80
2018-11-25T15:59:59.117Z,161.53
2018-11-25T16:02:41.698Z,179.00
2018-11-25T16:05:30.177Z,195.27
2018-11-25T16:08:11.593Z,202.90
2018-11-25T16:10:53.382Z,166.13
2018-11-25T16:13:35.999Z,185.80
2018-11-25T16:16:18.482Z,256.63
2018-11-25T16:19:00.705Z,204.10
2018-11-25T16:21:42.595Z,181.27
2018-11-25T16:24:24.467Z,207.47
2018-11-25T16:27:07.793Z,181.13
2018-11-25T16:29:49.721Z,233.00
2018-11-25T16:32:32.614Z,184.37
2018-11-25T16:35:14.614Z,147.67
2018-11-25T16:38:10.475Z,144.80
2018-11-25T16:40:56.247Z,131.03
2018-11-25T16:43:41.153Z,164.97
2018-11-25T16:46:23.806Z,163.10
2018-11-25T16:49:06.626Z,162.43
2018-11-25T16:51:52.717Z,159.27
2018-11-25T16:54:35.542Z,155.03
2018-11-25T16:57:17.944Z,189.23
2018-11-25T17:00:00.167Z,166.87
2018-11-25T17:02:43.417Z,158.63
2018-11-25T17:05:27.603Z,190.87
2018-11-25T17:08:13.060Z,171.10
2018-11-25T17:10:57.302Z,170.10
2018-11-25T17:13:42.450Z,161.80
2018-11-25T17:16:25.944Z,196.70
2018-11-25T17:23:04.639Z,193.57
2018-11-25T17:29:18.078Z,191.53
2018-11-25T17:32:01.520Z,165.47
2018-11-25T17:34:44.473Z,196.17
2018-11-25T17:37:28.086Z,241.20
2018-11-25T17:40:22.918Z,187.50
2018-11-25T17:43:26.958Z,225.27
2018-11-25T17:46:11.010Z,207.77
2018-11-25T17:48:53.763Z,197.77
2018-11-25T17:51:42.792Z,200.50
2018-11-25T17:54:27.025Z,142.73
2018-11-25T17:57:11.503Z,151.13
2018-11-25T17:59:55.869Z,170.27
2018-11-25T18:02:39.386Z,210.97
2018-11-25T18:05:24.145Z,178.70
2018-11-25T18:08:20.738Z,160.60
2018-11-25T18:11:14.687Z,181.57
2018-11-25T18:14:07.548Z,188.00
2018-11-25T18:17:07.963Z,170.70
2018-11-25T18:20:08.716Z,150.07
2018-11-25T18:23:16.199Z,159.33
2018-11-25T18:26:01.765Z,160.53
2018-11-25T18:28:45.767Z,142.17
2018-11-25T18:31:28.493Z,153.57
2018-11-25T18:34:11.340Z,157.93
2018-11-25T18:36:55.389Z,169.23
2018-11-25T18:39:40.283Z,175.43
2018-11-25T18:42:25.013Z,161.07
2018-11-25T18:45:18.498Z,161.50
2018-11-25T18:48:02.747Z,163.50
2018-11-25T18:50:46.818Z,146.10
2018-11-25T18:53:29.168Z,154.20
2018-11-25T18:56:13.637Z,135.40
2018-11-25T18:58:57.788Z,143.07
2018-11-25T19:01:46.051Z,136.57
2018-11-25T19:04:28.936Z,127.87
2018-11-25T19:07:14.515Z,141.97
2018-11-25T19:09:57.627Z,118.67
2018-11-25T19:12:44.201Z,131.07
2018-11-25T19:15:26.625Z,136.63
2018-11-25T19:18:10.624Z,134.03
2018-11-25T19:20:56.199Z,125.57
2018-11-25T19:23:41.290Z,112.07
2018-11-25T19:26:24.511Z,117.93
2018-11-25T19:29:08.651Z,125.43
2018-11-25T19:31:52.995Z,128.53
2018-11-25T19:34:35.938Z,130.60
2018-11-25T19:37:22.368Z,153.80
2018-11-25T19:40:05.877Z,132.27
2018-11-25T19:42:50.332Z,121.90
2018-11-25T19:45:34.373Z,116.93
2018-11-25T19:48:18.381Z,127.57
2018-11-25T19:51:00.610Z,133.63
2018-11-25T19:53:43.561Z,125.57
2018-11-25T19:56:26.361Z,126.60
2018-11-25T19:59:11.160Z,111.07
2018-11-25T20:01:56.529Z,127.57
2018-11-25T20:04:39.857Z,122.73
2018-11-25T20:07:22.953Z,126.43
2018-11-25T20:10:09.905Z,125.27
2018-11-25T20:12:56.556Z,126.67
2018-11-25T20:15:40.394Z,139.97
2018-11-25T20:18:27.047Z,127.13
2018-11-25T20:21:14.978Z,114.83
2018-11-25T20:23:58.908Z,103.07
2018-11-25T20:26:56.353Z,107.83
2018-11-25T20:29:41.004Z,131.03
2018-11-25T20:32:29.884Z,117.83
2018-11-25T20:35:15.162Z,119.07
2018-11-25T20:38:03.321Z,119.00
2018-11-25T20:40:46.831Z,109.20
2018-11-25T20:43:30.514Z,127.87
2018-11-25T20:46:19.408Z,116.67
2018-11-25T20:49:01.872Z,134.47
2018-11-25T20:51:51.106Z,113.90
2018-11-25T20:54:33.792Z,118.70
2018-11-25T20:57:16.989Z,118.13
2018-11-25T21:00:00.488Z,105.80
2018-11-25T21:02:43.629Z,105.03
2018-11-25T21:05:26.851Z,128.83
2018-11-25T21:08:10.145Z,122.80
2018-11-25T21:10:53.926Z,108.90
2018-11-25T21:13:36.270Z,113.83
2018-11-25T21:16:19.731Z,101.23
2018-11-25T21:19:02.844Z,111.97
2018-11-25T21:21:46.703Z,122.17
2018-11-25T21:24:30.515Z,110.63
2018-11-25T21:27:13.645Z,110.63
2018-11-25T21:30:02.658Z,131.23
2018-11-25T21:32:46.337Z,128.97
2018-11-25T21:35:29.285Z,113.90
2018-11-25T21:38:16.764Z,115.43
2018-11-25T21:41:01.156Z,110.37
2018-11-25T21:43:44.800Z,97.33
2018-11-25T21:46:27.621Z,100.63
2018-11-25T21:49:09.947Z,108.27
2018-11-25T21:51:53.482Z,112.53
2018-11-25T21:54:36.177Z,110.20
2018-11-25T21:57:20.214Z,99.00
2018-11-25T22:00:03.309Z,96.57
2018-11-25T22:02:45.441Z,92.93
2018-11-25T22:05:28.421Z,97.03
2018-11-25T22:08:12.789Z,109.40
2018-11-25T22:10:56.327Z,94.33
2018-11-25T22:13:39.965Z,119.50
2018-11-25T22:16:23.223Z,100.07
2018-11-25T22:19:06.190Z,114.90
2018-11-25T22:21:50.579Z,112.40
2018-11-25T22:24:46.105Z,121.83
2018-11-25T22:27:28.583Z,120.90
2018-11-25T22:30:18.476Z,115.17
2018-11-25T22:33:01.293Z,89.90
2018-11-25T22:35:45.155Z,100.63
2018-11-25T22:38:27.863Z,109.63
2018-11-25T22:41:12.509Z,114.90
2018-11-25T22:43:55.961Z,112.70
2018-11-25T22:46:39.117Z,100.10
2018-11-25T22:49:22.287Z,108.17
2018-11-25T22:52:07.626Z,94.03
2018-11-25T22:54:51.385Z,115.30
2018-11-25T22:57:34.524Z,107.13
2018-11-25T23:00:33.297Z,123.17
2018-11-25T23:03:16.545Z,111.17
2018-11-25T23:07:08.387Z,91.60
2018-11-25T23:09:51.473Z,94.90
2018-11-25T23:12:33.782Z,93.63
2018-11-25T23:15:16.830Z,94.57
2018-11-25T23:17:59.811Z,74.13
2018-11-25T23:20:43.986Z,74.13
2018-11-25T23:23:27.344Z,70.13
2018-11-25T23:26:11.341Z,85.37
2018-11-25T23:28:54.406Z,78.23
2018-11-25T23:31:37.855Z,90.87
2018-11-25T23:34:20.651Z,75.80
2018-11-25T23:37:05.205Z,84.67
2018-11-25T23:39:47.722Z,82.50
2018-11-25T23:42:30.331Z,87.77
2018-11-25T23:45:14.481Z,93.43
2018-11-25T23:47:57.706Z,86.80
2018-11-25T23:50:40.012Z,98.23
2018-11-25T23:53:23.745Z,84.33
2018-11-25T23:56:07.113Z,85.27
2018-11-25T23:58:51.044Z,83.20
